createdAt,value
2022-09-18T00:01:31.700Z,10.71
2022-09-18T00:04:01.383Z,10.59
2022-09-18T00:06:31.200Z,10.81
2022-09-18T00:08:59.609Z,10.78
2022-09-18T00:11:32.025Z,10.77
2022-09-18T00:13:58.995Z,10.69
2022-09-18T00:16:28.764Z,10.78
2022-09-18T00:18:56.263Z,10.91
2022-09-18T00:21:24.740Z,10.57
2022-09-18T00:23:56.814Z,10.72
2022-09-18T00:26:25.835Z,10.72
2022-09-18T00:28:54.779Z,10.60
2022-09-18T00:31:28.023Z,10.30
2022-09-18T00:33:54.553Z,10.45
2022-09-18T00:36:23.260Z,10.41
2022-09-18T00:38:50.313Z,10.37
2022-09-18T00:41:28.854Z,10.76
2022-09-18T00:44:18.733Z,10.78
2022-09-18T00:46:46.168Z,10.67
2022-09-18T00:49:26.356Z,10.40
2022-09-18T00:51:56.020Z,10.34
2022-09-18T00:54:36.219Z,10.32
2022-09-18T00:57:07.140Z,10.47
2022-09-18T00:59:35.633Z,10.21
2022-09-18T01:02:02.262Z,10.22
2022-09-18T01:04:29.844Z,10.18
2022-09-18T01:07:17.537Z,10.40
2022-09-18T01:10:08.898Z,10.45
2022-09-18T01:12:54.367Z,10.28
2022-09-18T01:15:42.771Z,10.28
2022-09-18T01:18:38.985Z,10.24
2022-09-18T01:21:19.261Z,10.19
2022-09-18T01:24:21.209Z,10.20
2022-09-18T01:27:01.594Z,10.05
2022-09-18T01:29:37.067Z,10.11
2022-09-18T01:32:15.494Z,10.12
2022-09-18T01:34:54.013Z,10.08
2022-09-18T01:37:29.818Z,10.14
2022-09-18T01:40:06.909Z,10.22
2022-09-18T01:42:36.374Z,10.04
2022-09-18T01:45:09.982Z,10.23
2022-09-18T01:47:44.187Z,10.23
2022-09-18T01:50:12.392Z,10.14
2022-09-18T01:52:44.876Z,10.37
2022-09-18T01:55:17.957Z,10.05
2022-09-18T01:57:53.399Z,10.14
2022-09-18T02:00:21.721Z,10.24
2022-09-18T02:02:59.048Z,10.14
2022-09-18T02:05:45.714Z,10.39
2022-09-18T02:08:33.878Z,10.12
2022-09-18T02:11:06.525Z,10.31
2022-09-18T02:13:39.201Z,10.22
2022-09-18T02:16:23.117Z,9.98
2022-09-18T02:18:54.281Z,10.00
2022-09-18T02:21:26.391Z,10.05
2022-09-18T02:24:03.126Z,10.10
2022-09-18T02:26:32.460Z,10.14
2022-09-18T02:29:00.261Z,10.30
2022-09-18T02:31:27.013Z,10.14
2022-09-18T02:33:53.475Z,9.90
2022-09-18T02:36:43.814Z,9.89
2022-09-18T02:39:35.337Z,10.05
2022-09-18T02:42:24.980Z,10.06
2022-09-18T02:45:15.400Z,9.91
2022-09-18T02:48:15.734Z,9.93
2022-09-18T02:51:19.760Z,10.03
2022-09-18T02:54:07.846Z,9.87
2022-09-18T02:56:42.640Z,9.94
2022-09-18T02:59:21.388Z,9.91
2022-09-18T03:01:48.638Z,9.83
2022-09-18T03:04:21.392Z,10.00
2022-09-18T03:06:47.946Z,9.86
2022-09-18T03:09:16.145Z,10.00
2022-09-18T03:11:42.692Z,10.07
2022-09-18T03:14:09.089Z,9.98
2022-09-18T03:16:35.620Z,10.03
2022-09-18T03:19:02.109Z,10.09
2022-09-18T03:21:28.817Z,10.16
2022-09-18T03:23:55.449Z,9.87
2022-09-18T03:26:22.137Z,10.10
2022-09-18T03:28:49.216Z,10.06
2022-09-18T03:31:15.720Z,9.93
2022-09-18T03:33:42.173Z,10.15
2022-09-18T03:36:08.979Z,9.97
2022-09-18T03:38:37.708Z,9.91
2022-09-18T03:41:04.878Z,9.88
2022-09-18T03:43:31.414Z,9.84
2022-09-18T03:45:57.908Z,9.95
2022-09-18T03:48:24.405Z,9.89
2022-09-18T03:50:50.962Z,9.94
2022-09-18T03:53:17.412Z,9.90
2022-09-18T03:55:43.934Z,9.91
2022-09-18T03:58:10.387Z,9.86
2022-09-18T04:00:37.059Z,9.83
2022-09-18T04:03:03.486Z,10.18
2022-09-18T04:05:29.921Z,10.03
2022-09-18T04:07:57.266Z,9.75
2022-09-18T04:10:23.735Z,9.87
2022-09-18T04:12:50.133Z,9.89
2022-09-18T04:15:16.711Z,9.73
2022-09-18T04:17:43.725Z,9.82
2022-09-18T04:20:11.054Z,9.98
2022-09-18T04:22:37.798Z,9.63
2022-09-18T04:25:04.467Z,9.57
2022-09-18T04:27:33.317Z,9.48
2022-09-18T04:29:59.835Z,9.43
2022-09-18T04:32:26.287Z,9.72
2022-09-18T04:34:52.737Z,9.79
2022-09-18T04:37:19.277Z,9.70
2022-09-18T04:39:46.964Z,9.71
2022-09-18T04:42:13.376Z,9.86
2022-09-18T04:44:39.803Z,9.71
2022-09-18T04:47:06.429Z,9.56
2022-09-18T04:49:32.832Z,9.84
2022-09-18T04:51:59.222Z,9.72
2022-09-18T04:54:25.647Z,10.02
2022-09-18T04:56:52.056Z,9.66
2022-09-18T04:59:19.292Z,9.60
2022-09-18T05:01:45.804Z,9.48
2022-09-18T05:04:12.293Z,10.06
2022-09-18T05:06:38.849Z,9.45
2022-09-18T05:09:05.282Z,9.57
2022-09-18T05:11:31.714Z,9.46
2022-09-18T05:13:58.726Z,9.43
2022-09-18T05:16:25.775Z,9.54
2022-09-18T05:18:52.820Z,9.49
2022-09-18T05:21:20.868Z,9.58
2022-09-18T05:23:48.010Z,9.43
2022-09-18T05:26:14.829Z,9.70
2022-09-18T05:28:41.488Z,9.80
2022-09-18T05:31:09.935Z,9.61
2022-09-18T05:33:36.818Z,9.56
2022-09-18T05:36:05.639Z,9.80
2022-09-18T05:38:32.266Z,9.44
2022-09-18T05:41:02.339Z,9.54
2022-09-18T05:43:34.359Z,9.72
2022-09-18T05:46:02.383Z,9.42
2022-09-18T05:48:43.391Z,9.75
2022-09-18T05:51:13.539Z,9.30
2022-09-18T05:53:42.149Z,9.37
2022-09-18T05:56:08.919Z,9.31
2022-09-18T05:58:37.137Z,9.43
2022-09-18T06:01:35.945Z,9.53
2022-09-18T06:04:22.373Z,9.28
2022-09-18T06:06:54.954Z,9.06
2022-09-18T06:13:24.644Z,9.41
2022-09-18T06:22:27.300Z,9.03
2022-09-18T06:35:51.936Z,8.99
2022-09-18T06:56:50.879Z,9.16
2022-09-18T06:59:21.188Z,9.31
2022-09-18T07:01:49.976Z,9.80
2022-09-18T07:04:18.487Z,9.52
2022-09-18T07:06:46.667Z,9.74
2022-09-18T07:09:13.838Z,9.59
2022-09-18T07:11:40.623Z,9.62
2022-09-18T07:14:08.239Z,9.77
2022-09-18T07:16:38.089Z,9.59
2022-09-18T07:19:07.868Z,9.66
2022-09-18T07:21:34.673Z,9.58
2022-09-18T07:27:41.771Z,10.09
2022-09-18T07:30:12.316Z,9.68
2022-09-18T07:32:44.357Z,10.06
2022-09-18T07:35:11.862Z,10.08
2022-09-18T07:37:43.143Z,9.82
2022-09-18T07:40:12.926Z,10.34
2022-09-18T07:42:40.052Z,10.15
2022-09-18T07:45:09.527Z,10.41
2022-09-18T07:47:44.679Z,10.04
2022-09-18T07:50:16.042Z,10.44
2022-09-18T07:56:43.545Z,10.54
2022-09-18T08:02:03.536Z,10.34
2022-09-18T08:04:33.608Z,10.76
2022-09-18T08:07:07.562Z,10.50
2022-09-18T08:09:34.397Z,10.17
2022-09-18T08:12:04.366Z,10.64
2022-09-18T08:14:31.078Z,10.42
2022-09-18T08:16:57.943Z,10.72
2022-09-18T08:19:24.467Z,10.64
2022-09-18T08:21:50.920Z,10.74
2022-09-18T08:24:19.082Z,10.91
2022-09-18T08:26:45.885Z,11.02
2022-09-18T08:29:21.723Z,11.23
2022-09-18T08:31:57.775Z,10.88
2022-09-18T08:34:24.875Z,11.06
2022-09-18T08:36:52.556Z,10.97
2022-09-18T08:39:19.161Z,11.09
2022-09-18T08:42:09.541Z,11.45
2022-09-18T08:45:01.317Z,11.17
2022-09-18T08:48:00.821Z,11.62
2022-09-18T08:50:58.458Z,11.46
2022-09-18T08:53:46.639Z,11.36
2022-09-18T08:56:24.041Z,11.58
2022-09-18T08:58:57.468Z,11.83
2022-09-18T09:01:48.058Z,11.66
2022-09-18T09:04:29.839Z,11.61
2022-09-18T09:07:11.877Z,11.70
2022-09-18T09:10:32.312Z,11.94
2022-09-18T09:13:55.218Z,12.01
2022-09-18T09:16:49.136Z,12.14
2022-09-18T09:19:37.176Z,11.76
2022-09-18T09:22:50.365Z,11.69
2022-09-18T09:25:38.523Z,11.89
2022-09-18T09:28:42.755Z,12.10
2022-09-18T09:31:32.227Z,11.97
2022-09-18T09:34:14.456Z,11.95
2022-09-18T09:37:24.190Z,11.86
2022-09-18T09:47:15.002Z,12.39
2022-09-18T09:50:25.497Z,12.39
2022-09-18T09:59:51.732Z,12.14
2022-09-18T10:03:06.577Z,12.22
2022-09-18T10:06:03.190Z,11.90
2022-09-18T10:09:07.279Z,12.54
2022-09-18T10:11:46.975Z,12.68
2022-09-18T10:14:19.435Z,12.89
2022-09-18T10:16:49.890Z,12.20
2022-09-18T10:19:19.796Z,12.25
2022-09-18T10:21:54.630Z,12.03
2022-09-18T10:25:05.156Z,12.22
2022-09-18T10:28:16.446Z,12.52
2022-09-18T10:31:03.456Z,12.54
2022-09-18T10:33:48.191Z,12.71
2022-09-18T10:36:36.270Z,12.80
2022-09-18T10:39:19.136Z,13.61
2022-09-18T10:41:51.140Z,13.58
2022-09-18T10:44:25.888Z,13.53
2022-09-18T10:46:59.168Z,13.24
2022-09-18T10:49:37.360Z,12.66
2022-09-18T10:52:53.340Z,12.61
2022-09-18T10:55:35.789Z,11.99
2022-09-18T10:58:18.293Z,12.00
2022-09-18T11:01:08.147Z,12.05
2022-09-18T11:03:59.855Z,11.94
2022-09-18T11:06:29.612Z,12.40
2022-09-18T11:09:12.358Z,12.25
2022-09-18T11:11:46.167Z,12.30
2022-09-18T11:14:56.164Z,13.13
2022-09-18T11:17:57.752Z,13.30
2022-09-18T11:24:34.767Z,12.62
2022-09-18T11:26:42.887Z,12.01
2022-09-18T11:29:31.876Z,12.00
2022-09-18T11:32:33.927Z,11.92
2022-09-18T11:35:23.791Z,11.91
2022-09-18T11:37:54.743Z,12.39
2022-09-18T11:40:45.306Z,12.62
2022-09-18T11:43:39.941Z,12.74
2022-09-18T11:46:30.382Z,13.16
2022-09-18T11:49:35.944Z,13.29
2022-09-18T11:52:49.214Z,13.38
2022-09-18T11:55:40.504Z,13.74
2022-09-18T11:58:44.773Z,13.72
2022-09-18T12:09:16.231Z,11.69
2022-09-18T12:12:12.015Z,11.34
2022-09-18T12:15:31.551Z,11.44
2022-09-18T12:18:37.938Z,11.47
2022-09-18T12:21:26.096Z,11.30
2022-09-18T12:23:53.526Z,11.73
2022-09-18T12:27:13.434Z,12.10
2022-09-18T12:30:13.350Z,12.61
2022-09-18T12:33:07.601Z,12.68
2022-09-18T12:36:13.048Z,12.88
2022-09-18T12:39:12.876Z,13.33
2022-09-18T12:42:04.949Z,13.42
2022-09-18T12:45:34.803Z,13.52
2022-09-18T12:48:43.547Z,13.40
2022-09-18T12:54:58.810Z,13.80
2022-09-18T12:58:22.735Z,14.36
2022-09-18T13:00:58.659Z,14.21
2022-09-18T13:03:38.692Z,13.95
2022-09-18T13:06:19.991Z,14.08
2022-09-18T13:12:46.004Z,13.83
2022-09-18T13:15:24.524Z,13.05
2022-09-18T13:18:04.611Z,12.74
2022-09-18T13:20:54.272Z,11.96
2022-09-18T13:33:31.983Z,12.90
2022-09-18T13:36:05.090Z,13.26
2022-09-18T13:38:35.430Z,13.67
2022-09-18T13:41:13.571Z,13.36
2022-09-18T13:43:51.415Z,13.49
2022-09-18T13:46:35.653Z,12.69
2022-09-18T13:49:14.237Z,12.44
2022-09-18T13:51:46.807Z,12.63
2022-09-18T13:54:36.482Z,13.12
2022-09-18T13:57:03.436Z,12.72
2022-09-18T14:00:32.792Z,12.99
2022-09-18T14:03:24.929Z,12.62
2022-09-18T14:06:06.408Z,12.33
2022-09-18T14:20:57.570Z,12.19
2022-09-18T14:27:02.591Z,12.29
2022-09-18T14:29:37.292Z,11.99
2022-09-18T14:32:08.642Z,11.96
2022-09-18T14:34:41.875Z,11.64
2022-09-18T14:37:41.041Z,12.26
2022-09-18T14:40:22.816Z,11.80
2022-09-18T14:42:49.989Z,12.09
2022-09-18T14:45:28.712Z,12.46
2022-09-18T14:47:56.634Z,11.72
2022-09-18T14:50:55.339Z,12.05
2022-09-18T14:53:25.049Z,12.27
2022-09-18T14:56:06.497Z,11.96
2022-09-18T14:58:41.351Z,12.29
2022-09-18T15:01:18.097Z,12.55
2022-09-18T15:03:51.466Z,12.74
2022-09-18T15:06:22.668Z,12.69
2022-09-18T15:09:02.086Z,12.70
2022-09-18T15:11:41.979Z,13.12
2022-09-18T15:14:30.197Z,13.45
2022-09-18T15:16:59.396Z,12.94
2022-09-18T15:19:27.006Z,13.23
2022-09-18T15:22:46.175Z,13.11
2022-09-18T15:25:14.368Z,13.12
2022-09-18T15:31:56.302Z,13.05
2022-09-18T15:34:26.810Z,12.92
2022-09-18T15:37:02.511Z,12.65
2022-09-18T15:39:45.080Z,12.97
2022-09-18T15:42:17.159Z,12.86
2022-09-18T15:44:50.334Z,12.67
2022-09-18T15:47:26.075Z,12.46
2022-09-18T15:49:52.844Z,12.73
2022-09-18T15:52:42.194Z,12.98
2022-09-18T15:59:28.493Z,12.08
2022-09-18T16:01:55.820Z,11.89
2022-09-18T16:04:35.527Z,11.84
2022-09-18T16:07:06.099Z,11.73
2022-09-18T16:09:41.928Z,11.85
2022-09-18T16:21:50.083Z,11.19
2022-09-18T16:43:10.848Z,10.77
2022-09-18T16:48:47.907Z,10.90
2022-09-18T16:51:14.579Z,10.36
2022-09-18T16:53:41.615Z,10.65
2022-09-18T16:56:24.033Z,10.38
2022-09-18T17:02:39.678Z,10.20
2022-09-18T17:05:34.765Z,10.64
2022-09-18T17:08:16.652Z,10.27
2022-09-18T17:10:47.258Z,10.60
2022-09-18T17:13:14.955Z,10.35
2022-09-18T17:54:12.548Z,9.74
2022-09-18T17:57:31.388Z,9.58
2022-09-18T18:12:12.278Z,9.98
2022-09-18T18:14:58.480Z,9.44
2022-09-18T21:04:57.081Z,9.44
2022-09-18T21:07:27.359Z,9.33
2022-09-18T21:10:32.491Z,9.44
2022-09-18T21:12:59.652Z,9.25
2022-09-18T21:15:30.464Z,9.45
2022-09-18T21:17:57.571Z,9.61
2022-09-18T21:20:24.608Z,9.14
2022-09-18T21:23:09.874Z,9.44
2022-09-18T21:25:38.508Z,9.61
2022-09-18T21:28:06.232Z,9.25
2022-09-18T21:30:32.816Z,9.32
2022-09-18T21:32:59.747Z,9.53
2022-09-18T21:35:26.205Z,9.36
2022-09-18T21:37:53.892Z,9.50
2022-09-18T21:40:20.550Z,9.73
2022-09-18T21:42:47.756Z,9.42
2022-09-18T21:45:20.836Z,9.54
2022-09-18T21:47:49.238Z,9.74
2022-09-18T21:50:15.975Z,9.53
2022-09-18T21:52:48.843Z,9.82
2022-09-18T21:55:18.600Z,9.53
2022-09-18T21:57:45.080Z,9.43
2022-09-18T22:00:12.127Z,9.57
2022-09-18T22:02:40.855Z,9.23
2022-09-18T22:05:09.280Z,9.14
2022-09-18T22:07:36.114Z,9.25
2022-09-18T22:10:02.518Z,9.50
2022-09-18T22:12:29.232Z,9.34
2022-09-18T22:14:55.957Z,9.43
2022-09-18T22:17:23.027Z,9.33
2022-09-18T22:19:49.518Z,9.11
2022-09-18T22:22:16.113Z,9.14
2022-09-18T22:24:43.058Z,9.04
2022-09-18T22:27:10.811Z,9.26
2022-09-18T22:29:39.658Z,9.34
2022-09-18T22:32:06.872Z,9.25
2022-09-18T22:34:36.727Z,9.44
2022-09-18T22:37:03.802Z,9.09
2022-09-18T22:39:30.916Z,9.15
2022-09-18T22:41:57.926Z,9.14
2022-09-18T22:44:25.941Z,9.43
2022-09-18T22:46:53.081Z,9.64
2022-09-18T22:49:21.461Z,9.40
2022-09-18T22:51:48.735Z,8.98
2022-09-18T22:54:16.956Z,9.21
2022-09-18T22:56:50.557Z,9.20
2022-09-18T22:59:22.130Z,9.41
2022-09-18T23:02:03.811Z,9.35
2022-09-18T23:04:35.614Z,9.49
2022-09-18T23:07:03.399Z,9.27
2022-09-18T23:09:33.494Z,9.17
2022-09-18T23:12:01.527Z,9.14
2022-09-18T23:14:31.225Z,8.93
2022-09-18T23:16:59.528Z,9.28
2022-09-18T23:19:29.461Z,9.30
2022-09-18T23:21:56.225Z,9.11
2022-09-18T23:24:23.897Z,9.36
2022-09-18T23:26:57.532Z,9.14
2022-09-18T23:29:26.587Z,9.54
2022-09-18T23:31:55.215Z,9.49
2022-09-18T23:34:24.655Z,8.73
2022-09-18T23:36:53.332Z,9.02
2022-09-18T23:39:28.860Z,8.72
2022-09-18T23:42:02.231Z,8.62
2022-09-18T23:44:31.045Z,8.98
2022-09-18T23:47:01.267Z,8.91
2022-09-18T23:49:32.139Z,9.29
2022-09-18T23:51:59.689Z,8.96
2022-09-18T23:54:39.998Z,8.79
2022-09-18T23:57:06.637Z,8.97
2022-09-18T23:59:47.353Z,8.53
